Time;durP1;ratioP1;P1;durP2;ratioP2;P2;SDS_P1;SDS_P2;PMS_P1;PMS_P2;Temp;Humidity;BMP_temperature;BMP_pressure;BME280_temperature;BME280_humidity;BME280_pressure;Samples;Min_cycle;Max_cycle;Signal;HPM_P1;HPM_P2
2023/05/09 00:01:30;;;;;;;217.80;59.22;;;13.80;99.90;;;;;;5075293;28;20544;-20
2023/05/09 00:03:57;;;;;;;221.73;59.00;;;13.90;99.90;;;;;;5075757;28;20059;-20
2023/05/09 00:06:24;;;;;;;217.40;58.97;;;13.90;99.90;;;;;;5075156;28;20057;-20
2023/05/09 00:08:50;;;;;;;241.85;59.35;;;13.70;99.90;;;;;;5075774;28;20053;-20
2023/05/09 00:11:16;;;;;;;235.80;61.03;;;13.50;99.90;;;;;;5075753;28;20044;-21
2023/05/09 00:13:43;;;;;;;202.45;57.97;;;13.70;99.90;;;;;;5075744;28;20048;-20
2023/05/09 00:16:09;;;;;;;218.55;58.33;;;13.40;99.90;;;;;;5076490;28;20048;-20
2023/05/09 00:18:36;;;;;;;213.63;55.42;;;13.70;99.90;;;;;;5075662;28;20062;-21
2023/05/09 00:21:03;;;;;;;199.60;55.08;;;13.50;99.90;;;;;;5075556;28;20102;-20
2023/05/09 00:23:31;;;;;;;197.02;55.03;;;13.70;99.90;;;;;;5076333;28;20438;-20
2023/05/09 00:25:58;;;;;;;205.35;55.53;;;13.50;99.90;;;;;;5075455;28;20048;-20
2023/05/09 00:28:24;;;;;;;183.07;53.80;;;13.50;99.90;;;;;;5075163;28;20092;-20
2023/05/09 00:30:50;;;;;;;198.70;52.95;;;13.70;99.90;;;;;;5075636;28;20083;-21
2023/05/09 00:33:15;;;;;;;216.57;56.15;;;13.40;99.90;;;;;;5074191;28;20102;-21
2023/05/09 00:35:41;;;;;;;251.25;57.00;;;13.50;99.90;;;;;;5074102;28;20052;-21
2023/05/09 00:38:07;;;;;;;222.32;57.03;;;13.50;99.90;;;;;;5057669;28;20052;-21
2023/05/09 00:40:33;;;;;;;217.30;56.28;;;13.40;99.90;;;;;;5075174;28;20044;-21
2023/05/09 00:42:59;;;;;;;181.65;52.97;;;13.40;99.90;;;;;;5058335;28;20043;-21
2023/05/09 00:45:25;;;;;;;178.80;52.00;;;13.40;99.90;;;;;;5075646;28;20053;-21
2023/05/09 00:47:50;;;;;;;179.57;49.90;;;13.30;99.90;;;;;;5075063;28;20048;-21
2023/05/09 00:50:16;;;;;;;197.52;54.50;;;13.20;99.90;;;;;;5074933;28;20051;-21
2023/05/09 00:52:42;;;;;;;185.40;48.38;;;13.40;99.90;;;;;;5074592;28;20048;-21
2023/05/09 00:55:09;;;;;;;189.68;51.65;;;13.30;99.90;;;;;;5075448;28;20045;-21
2023/05/09 00:57:35;;;;;;;191.30;52.38;;;13.30;99.90;;;;;;5074829;28;20045;-21
2023/05/09 01:00:03;;;;;;;196.57;52.15;;;13.20;99.90;;;;;;5073666;28;20045;-21
2023/05/09 01:02:30;;;;;;;208.27;51.75;;;13.30;99.90;;;;;;5074640;28;20044;-21
2023/05/09 01:04:57;;;;;;;166.35;46.38;;;13.30;99.90;;;;;;5073560;28;20131;-21
2023/05/09 01:07:40;;;;;;;191.02;49.70;;;13.30;99.90;;;;;;5073707;28;20062;-21
2023/05/09 01:10:14;;;;;;;184.68;48.78;;;13.30;99.90;;;;;;5073707;28;20054;-21
2023/05/09 01:12:54;;;;;;;201.93;51.30;;;13.20;99.90;;;;;;5074469;28;20044;-21
2023/05/09 01:15:47;;;;;;;176.73;48.50;;;13.20;99.90;;;;;;5073031;28;20048;-21
2023/05/09 01:18:33;;;;;;;167.55;47.45;;;13.30;99.90;;;;;;5074798;28;20126;-21
2023/05/09 01:21:20;;;;;;;183.90;48.22;;;13.20;99.90;;;;;;5074338;28;20478;-21
2023/05/09 01:24:07;;;;;;;184.88;47.85;;;13.00;99.90;;;;;;5075206;28;20056;-21
2023/05/09 01:26:45;;;;;;;179.30;51.35;;;13.20;99.90;;;;;;5074287;28;20135;-21
2023/05/09 01:29:40;;;;;;;181.48;47.95;;;13.10;99.90;;;;;;5073282;28;20106;-21
2023/05/09 01:32:09;;;;;;;156.88;45.13;;;13.20;99.90;;;;;;5075067;28;20047;-21
2023/05/09 01:34:39;;;;;;;190.10;50.20;;;13.30;99.90;;;;;;5074941;28;20072;-21
2023/05/09 01:37:06;;;;;;;182.00;49.22;;;13.10;99.90;;;;;;5072852;28;20083;-21
2023/05/09 01:39:37;;;;;;;166.13;45.58;;;13.40;99.90;;;;;;5074037;28;20036;-21
2023/05/09 01:42:06;;;;;;;158.30;45.40;;;13.10;99.90;;;;;;5074075;28;20041;-21
2023/05/09 01:44:37;;;;;;;146.88;46.63;;;13.10;99.90;;;;;;5074532;28;20383;-21
2023/05/09 01:47:06;;;;;;;152.82;45.42;;;13.20;99.90;;;;;;5073705;28;20395;-21
2023/05/09 01:49:35;;;;;;;137.60;41.75;;;13.20;99.90;;;;;;5073934;28;20402;-22
2023/05/09 01:52:04;;;;;;;155.07;46.75;;;13.50;99.90;;;;;;5072528;28;20044;-21
2023/05/09 01:54:31;;;;;;;156.63;46.33;;;13.40;99.90;;;;;;5072663;28;20090;-22
2023/05/09 01:56:58;;;;;;;155.63;45.92;;;13.30;99.90;;;;;;5074401;28;20058;-21
2023/05/09 01:59:25;;;;;;;143.88;42.53;;;13.40;99.90;;;;;;5073638;28;20040;-22
2023/05/09 02:01:53;;;;;;;207.05;55.05;;;13.50;99.90;;;;;;5073729;28;20117;-22
2023/05/09 02:04:20;;;;;;;176.20;47.00;;;13.30;99.90;;;;;;5073737;28;20048;-21
2023/05/09 02:06:50;;;;;;;153.52;43.63;;;13.50;99.90;;;;;;5073556;28;20052;-21
2023/05/09 02:09:19;;;;;;;163.07;46.53;;;13.60;99.90;;;;;;5072472;28;20089;-21
2023/05/09 02:11:45;;;;;;;155.60;45.88;;;13.60;99.90;;;;;;5073669;28;20048;-22
2023/05/09 02:14:12;;;;;;;150.45;42.55;;;13.50;99.90;;;;;;5039212;28;20189;-21
2023/05/09 02:16:38;;;;;;;158.63;44.72;;;13.60;99.90;;;;;;5055967;28;20044;-21
2023/05/09 02:19:05;;;;;;;150.02;43.50;;;13.30;99.90;;;;;;5073648;28;20048;-21
2023/05/09 02:21:30;;;;;;;147.43;43.03;;;13.30;99.90;;;;;;5073746;28;20383;-22
2023/05/09 02:23:57;;;;;;;146.40;43.78;;;13.50;99.90;;;;;;5072376;28;20052;-21
2023/05/09 02:26:24;;;;;;;146.25;42.00;;;13.60;99.90;;;;;;5079242;28;20048;-22
2023/05/09 02:28:51;;;;;;;164.85;45.45;;;13.30;99.90;;;;;;5062371;28;20135;-22
2023/05/09 02:31:19;;;;;;;158.82;43.97;;;13.60;99.90;;;;;;5079025;28;20048;-22
2023/05/09 02:33:46;;;;;;;141.98;42.65;;;13.20;99.90;;;;;;5080143;28;20052;-22
2023/05/09 02:36:14;;;;;;;125.93;39.90;;;13.20;99.90;;;;;;5080143;28;20490;-21
2023/05/09 02:38:40;;;;;;;165.93;45.55;;;13.40;99.90;;;;;;5080940;28;20056;-21
2023/05/09 02:41:06;;;;;;;168.35;46.42;;;13.30;99.90;;;;;;5080265;28;20056;-22
2023/05/09 02:43:32;;;;;;;152.40;43.28;;;13.20;99.90;;;;;;5080297;28;20044;-22
2023/05/09 02:45:58;;;;;;;205.13;45.17;;;13.10;99.90;;;;;;5080282;28;20040;-22
2023/05/09 02:48:23;;;;;;;234.20;42.92;;;13.00;99.90;;;;;;5079989;28;20045;-22
2023/05/09 02:50:49;;;;;;;208.40;40.65;;;13.20;99.90;;;;;;5045429;28;20131;-22
2023/05/09 02:53:15;;;;;;;180.75;43.38;;;12.90;99.90;;;;;;5079921;28;20052;-22
2023/05/09 02:55:40;;;;;;;203.10;40.78;;;13.00;99.90;;;;;;5080203;28;20056;-21
2023/05/09 02:58:07;;;;;;;148.90;39.75;;;12.70;99.90;;;;;;5080450;28;20044;-22
2023/05/09 03:00:33;;;;;;;200.77;43.15;;;12.70;99.90;;;;;;5079831;28;20087;-21
2023/05/09 03:02:59;;;;;;;176.68;42.20;;;12.80;99.90;;;;;;5079878;28;20084;-22
2023/05/09 03:05:25;;;;;;;232.93;46.50;;;12.80;99.90;;;;;;5062535;28;20045;-22
2023/05/09 03:07:50;;;;;;;181.65;41.65;;;13.10;99.90;;;;;;5078912;28;20056;-22
2023/05/09 03:10:16;;;;;;;162.57;41.22;;;12.70;99.90;;;;;;5061918;28;20055;-22
2023/05/09 03:12:42;;;;;;;162.30;41.63;;;12.70;99.90;;;;;;5079818;28;20124;-21
2023/05/09 03:15:08;;;;;;;264.00;47.83;;;12.90;99.90;;;;;;5061892;28;20052;-21
2023/05/09 03:17:34;;;;;;;242.88;49.05;;;12.70;99.90;;;;;;5079679;28;20483;-22
2023/05/09 03:20:00;;;;;;;271.08;50.00;;;12.90;99.90;;;;;;5079746;28;20123;-21
2023/05/09 03:22:26;;;;;;;226.25;49.15;;;12.90;99.90;;;;;;5080162;28;20094;-22
2023/05/09 03:24:52;;;;;;;289.20;51.40;;;13.00;99.90;;;;;;5079046;28;20045;-22
2023/05/09 03:27:18;;;;;;;182.32;45.30;;;12.60;99.90;;;;;;5079394;28;20060;-22
2023/05/09 03:29:43;;;;;;;218.57;46.60;;;13.00;99.90;;;;;;5080235;28;20052;-21
2023/05/09 03:32:09;;;;;;;245.77;45.13;;;12.60;99.90;;;;;;5079467;28;20048;-21
2023/05/09 03:34:35;;;;;;;118.13;34.10;;;12.90;99.90;;;;;;5080119;28;20051;-22
2023/05/09 03:37:00;;;;;;;235.65;45.70;;;12.70;99.90;;;;;;5076887;28;20048;-22
2023/05/09 03:39:26;;;;;;;172.65;41.60;;;13.00;99.90;;;;;;5076041;28;20049;-22
2023/05/09 03:41:52;;;;;;;200.70;43.05;;;13.00;99.90;;;;;;5076509;28;20047;-22
2023/05/09 03:44:17;;;;;;;284.58;44.08;;;12.90;99.90;;;;;;5076818;28;20375;-22
2023/05/09 03:46:43;;;;;;;311.20;43.97;;;13.00;99.90;;;;;;5075956;28;20128;-22
2023/05/09 03:49:09;;;;;;;433.67;53.55;;;13.10;99.90;;;;;;5076468;28;20043;-22
2023/05/09 03:51:35;;;;;;;421.02;50.22;;;13.20;99.90;;;;;;5076161;28;20501;-22
2023/05/09 03:54:01;;;;;;;665.22;60.65;;;12.80;99.90;;;;;;5076105;28;20525;-22
2023/05/09 03:56:26;;;;;;;536.40;57.42;;;13.30;99.90;;;;;;5076061;28;20087;-22
2023/05/09 03:58:52;;;;;;;488.90;56.15;;;13.20;99.90;;;;;;5076075;28;20097;-22
2023/05/09 04:01:18;;;;;;;839.42;79.07;;;13.10;99.90;;;;;;5074901;28;20499;-22
2023/05/09 04:03:44;;;;;;;340.90;54.97;;;13.00;99.90;;;;;;5075757;28;20052;-22
2023/05/09 04:06:09;;;;;;;497.20;65.35;;;13.00;99.90;;;;;;5076393;28;20149;-22
2023/05/09 04:08:35;;;;;;;641.28;76.95;;;13.20;99.90;;;;;;5075688;28;20054;-22
2023/05/09 04:11:01;;;;;;;455.85;65.55;;;13.10;99.90;;;;;;5074556;28;20521;-22
2023/05/09 04:13:28;;;;;;;1023.90;103.40;;;13.00;99.90;;;;;;5074465;28;20056;-22
2023/05/09 04:15:54;;;;;;;714.53;88.13;;;12.90;99.90;;;;;;5074940;28;20064;-22
2023/05/09 04:18:20;;;;;;;593.72;78.20;;;13.00;99.90;;;;;;5075603;28;20048;-22
2023/05/09 04:20:45;;;;;;;712.28;91.65;;;13.20;99.90;;;;;;5075461;28;20098;-22
2023/05/09 04:23:11;;;;;;;491.48;70.18;;;13.30;99.90;;;;;;5076031;28;20094;-22
2023/05/09 04:25:37;;;;;;;575.50;78.32;;;12.90;99.90;;;;;;5075657;28;20045;-22
2023/05/09 04:28:03;;;;;;;524.60;71.97;;;13.10;99.90;;;;;;5076022;28;20056;-22
2023/05/09 04:30:28;;;;;;;474.70;71.25;;;13.10;99.90;;;;;;5075297;28;20082;-22
2023/05/09 04:32:54;;;;;;;383.90;67.88;;;13.30;99.90;;;;;;5074122;28;20048;-22
2023/05/09 04:35:21;;;;;;;315.80;65.15;;;13.00;99.90;;;;;;5075302;28;20052;-22
2023/05/09 04:37:47;;;;;;;397.77;73.63;;;13.10;99.90;;;;;;5075200;28;20048;-22
2023/05/09 04:40:13;;;;;;;268.55;60.50;;;13.20;99.90;;;;;;5075152;28;20059;-22
2023/05/09 04:42:40;;;;;;;292.33;63.97;;;13.60;99.90;;;;;;5075005;28;20048;-22
2023/05/09 04:45:06;;;;;;;300.35;68.25;;;13.30;99.90;;;;;;5075012;28;20053;-22
2023/05/09 04:47:32;;;;;;;280.70;64.28;;;13.60;99.90;;;;;;5074764;28;20063;-22
2023/05/09 04:49:57;;;;;;;341.20;72.20;;;13.20;99.90;;;;;;5074828;28;20048;-22
2023/05/09 04:52:23;;;;;;;292.73;71.82;;;13.60;99.90;;;;;;5074872;28;20127;-22
2023/05/09 04:54:49;;;;;;;286.95;70.50;;;13.70;99.90;;;;;;5074878;28;20050;-22
2023/05/09 04:57:15;;;;;;;289.30;71.30;;;13.80;99.90;;;;;;5057027;28;20049;-22
2023/05/09 04:59:41;;;;;;;347.80;77.25;;;13.90;99.90;;;;;;5074766;28;20036;-22
2023/05/09 05:02:07;;;;;;;302.63;76.75;;;13.50;99.90;;;;;;5074644;28;20054;-22
2023/05/09 05:04:32;;;;;;;353.00;81.97;;;13.60;99.90;;;;;;5074276;28;20051;-22
2023/05/09 05:06:58;;;;;;;336.35;83.85;;;14.10;99.90;;;;;;5074660;28;20049;-22
2023/05/09 05:09:24;;;;;;;327.67;89.15;;;14.20;99.90;;;;;;5074602;28;20411;-22
2023/05/09 05:11:50;;;;;;;351.23;88.80;;;13.80;99.90;;;;;;5073569;28;20043;-22
2023/05/09 05:14:15;;;;;;;345.52;87.85;;;14.40;99.90;;;;;;5073854;28;20044;-22
2023/05/09 05:16:41;;;;;;;334.30;91.03;;;14.10;99.90;;;;;;5074434;28;20047;-22
2023/05/09 05:19:07;;;;;;;399.63;100.60;;;14.20;99.90;;;;;;5074922;28;20055;-22
2023/05/09 05:21:32;;;;;;;371.48;96.82;;;14.60;99.90;;;;;;5074261;28;20048;-22
2023/05/09 05:23:58;;;;;;;347.92;94.32;;;14.20;99.90;;;;;;5074625;28;20045;-22
2023/05/09 05:26:24;;;;;;;381.52;95.45;;;14.30;99.90;;;;;;5074120;28;20044;-22
2023/05/09 05:28:54;;;;;;;313.38;91.53;;;14.80;99.90;;;;;;5072844;28;20495;-22
2023/05/09 05:31:20;;;;;;;341.40;93.55;;;14.80;99.90;;;;;;5072719;28;20040;-22
2023/05/09 05:33:46;;;;;;;359.65;97.18;;;14.50;99.90;;;;;;5074624;28;20088;-22
2023/05/09 05:36:11;;;;;;;374.05;96.38;;;14.80;99.90;;;;;;5074066;28;20137;-22
2023/05/09 05:38:37;;;;;;;368.98;99.10;;;14.80;99.90;;;;;;5072914;28;20048;-22
2023/05/09 05:41:03;;;;;;;336.38;93.78;;;15.00;99.90;;;;;;5056923;28;20125;-22
2023/05/09 05:43:29;;;;;;;311.63;93.72;;;15.00;99.90;;;;;;5074014;28;20050;-22
2023/05/09 05:45:55;;;;;;;352.98;99.03;;;14.70;99.90;;;;;;5073857;28;20051;-22
2023/05/09 05:48:20;;;;;;;367.60;100.28;;;15.00;99.90;;;;;;5074708;28;20047;-22
2023/05/09 05:50:46;;;;;;;375.15;97.10;;;14.80;99.90;;;;;;5072858;28;20049;-22
2023/05/09 05:53:12;;;;;;;346.77;95.50;;;15.10;99.90;;;;;;5074104;28;20049;-22
2023/05/09 05:55:38;;;;;;;309.70;92.28;;;15.10;99.90;;;;;;5073813;28;20420;-22
2023/05/09 05:58:04;;;;;;;318.73;92.03;;;14.90;99.90;;;;;;5056192;28;20052;-22
2023/05/09 06:00:29;;;;;;;294.13;89.78;;;15.00;99.90;;;;;;5072048;28;20044;-23
2023/05/09 06:02:55;;;;;;;297.10;90.43;;;15.20;99.90;;;;;;5074481;28;20044;-23
2023/05/09 06:05:21;;;;;;;314.15;93.80;;;15.00;99.90;;;;;;5073749;28;20521;-23
2023/05/09 06:07:47;;;;;;;280.67;89.15;;;15.30;99.90;;;;;;5073705;28;20053;-23
2023/05/09 06:10:14;;;;;;;270.40;89.07;;;15.10;99.90;;;;;;5056103;28;20063;-23
2023/05/09 06:12:40;;;;;;;259.88;87.68;;;15.40;99.90;;;;;;5055955;28;20466;-23
2023/05/09 06:15:06;;;;;;;263.95;90.90;;;15.30;99.90;;;;;;5055826;28;20098;-23
2023/05/09 06:17:33;;;;;;;250.35;88.80;;;15.50;99.90;;;;;;5072286;28;20048;-23
2023/05/09 06:19:59;;;;;;;255.68;88.38;;;15.40;99.90;;;;;;5073564;28;20048;-23
2023/05/09 06:22:24;;;;;;;253.07;88.60;;;15.70;99.90;;;;;;5072278;28;20040;-23
2023/05/09 06:24:50;;;;;;;241.18;86.65;;;15.80;99.90;;;;;;5074022;28;20090;-23
2023/05/09 06:27:16;;;;;;;245.15;90.93;;;15.80;99.90;;;;;;5073372;28;20114;-23
2023/05/09 06:29:41;;;;;;;227.43;85.65;;;15.90;99.90;;;;;;5073038;28;20073;-23
2023/05/09 06:32:07;;;;;;;229.70;83.55;;;16.10;99.90;;;;;;5072184;28;20126;-23
2023/05/09 06:34:33;;;;;;;207.77;80.63;;;16.10;99.90;;;;;;5073090;28;20131;-23
2023/05/09 06:36:58;;;;;;;208.43;82.40;;;16.20;99.90;;;;;;5056093;28;20052;-23
2023/05/09 06:39:24;;;;;;;184.68;76.88;;;16.30;99.90;;;;;;5073395;28;20040;-23
2023/05/09 06:41:50;;;;;;;171.70;76.40;;;16.40;99.90;;;;;;5073285;28;20498;-24
2023/05/09 06:44:15;;;;;;;173.02;75.68;;;16.30;99.90;;;;;;5073386;28;20119;-24
2023/05/09 06:46:41;;;;;;;158.32;71.97;;;16.30;99.90;;;;;;5072123;28;20390;-23
2023/05/09 06:49:07;;;;;;;153.65;70.07;;;16.20;99.90;;;;;;5071824;28;20061;-24
2023/05/09 06:51:33;;;;;;;151.18;71.47;;;16.30;99.90;;;;;;5072068;28;20036;-23
2023/05/09 06:53:58;;;;;;;147.52;67.95;;;16.20;99.90;;;;;;5073092;28;20543;-24
2023/05/09 06:56:25;;;;;;;158.48;69.50;;;16.20;99.90;;;;;;5073231;28;20053;-24
2023/05/09 06:58:51;;;;;;;150.82;69.63;;;16.10;99.90;;;;;;5071993;28;20080;-23
2023/05/09 07:01:17;;;;;;;149.52;69.40;;;16.10;99.90;;;;;;5071851;28;20545;-23
2023/05/09 07:03:43;;;;;;;141.25;65.43;;;16.10;99.90;;;;;;5073115;28;20504;-23
2023/05/09 07:06:09;;;;;;;153.32;69.07;;;16.30;99.90;;;;;;5073366;28;20079;-23
2023/05/09 07:08:35;;;;;;;142.00;70.45;;;16.40;99.90;;;;;;5073078;28;20482;-23
2023/05/09 07:11:00;;;;;;;141.00;66.45;;;16.50;99.90;;;;;;5054906;28;20041;-23
2023/05/09 07:13:26;;;;;;;138.35;69.30;;;16.60;99.90;;;;;;5075960;28;20135;-23
2023/05/09 07:15:52;;;;;;;126.88;65.40;;;16.70;99.90;;;;;;5076752;28;20047;-23
2023/05/09 07:18:17;;;;;;;141.15;68.35;;;16.80;99.90;;;;;;5075512;28;20048;-23
2023/05/09 07:20:43;;;;;;;121.15;64.90;;;16.90;99.90;;;;;;5076603;28;20051;-23
2023/05/09 07:23:09;;;;;;;118.03;59.33;;;16.90;99.90;;;;;;5076338;28;20044;-23
2023/05/09 07:25:35;;;;;;;128.00;64.00;;;16.90;99.90;;;;;;5076598;28;20143;-23
2023/05/09 07:28:01;;;;;;;111.43;59.45;;;17.10;99.90;;;;;;5058495;28;20494;-23
2023/05/09 07:30:26;;;;;;;111.80;57.90;;;17.20;99.90;;;;;;5058898;28;20052;-23
2023/05/09 07:32:52;;;;;;;105.40;59.38;;;17.20;99.90;;;;;;5058633;28;20037;-23
2023/05/09 07:35:19;;;;;;;102.60;56.50;;;17.20;99.90;;;;;;5076674;28;20477;-23
2023/05/09 07:37:45;;;;;;;93.65;53.63;;;17.20;99.90;;;;;;5076357;28;20060;-23
2023/05/09 07:40:11;;;;;;;103.95;55.67;;;17.10;99.90;;;;;;5076935;28;20052;-23
2023/05/09 07:42:37;;;;;;;98.05;55.90;;;16.90;99.90;;;;;;5058460;28;20441;-24
2023/05/09 07:45:04;;;;;;;97.25;54.58;;;16.60;99.90;;;;;;5075361;28;20466;-23
2023/05/09 07:47:31;;;;;;;91.50;51.03;;;16.60;99.90;;;;;;5076283;28;20049;-23
2023/05/09 07:49:57;;;;;;;94.05;50.80;;;16.60;99.90;;;;;;5075758;28;20482;-23
2023/05/09 07:52:23;;;;;;;76.40;45.45;;;16.60;99.90;;;;;;5076137;28;20098;-23
2023/05/09 07:54:48;;;;;;;78.00;45.10;;;16.50;99.90;;;;;;5075613;28;20041;-23
2023/05/09 07:57:15;;;;;;;80.07;45.50;;;16.50;99.90;;;;;;5075723;28;20118;-23
2023/05/09 07:59:41;;;;;;;89.82;49.10;;;16.50;99.90;;;;;;5075996;28;20074;-23
2023/05/09 08:02:07;;;;;;;83.13;47.42;;;16.50;99.90;;;;;;5058086;28;20044;-23
2023/05/09 08:04:36;;;;;;;89.40;47.78;;;16.40;99.90;;;;;;5076531;28;20071;-23
2023/05/09 08:07:03;;;;;;;88.15;49.05;;;16.40;99.90;;;;;;5074793;28;20048;-24
2023/05/09 08:09:29;;;;;;;80.25;44.20;;;16.40;99.90;;;;;;5075483;28;20052;-23
2023/05/09 08:11:54;;;;;;;88.07;47.30;;;16.30;99.90;;;;;;5075188;28;20201;-23
2023/05/09 08:14:20;;;;;;;86.80;45.33;;;16.30;99.90;;;;;;5076047;28;20051;-23
2023/05/09 08:16:46;;;;;;;80.03;44.75;;;16.20;99.90;;;;;;5075567;28;20374;-23
2023/05/09 08:19:12;;;;;;;78.40;45.85;;;16.30;99.90;;;;;;5075930;28;20044;-23
2023/05/09 08:21:38;;;;;;;73.18;45.08;;;16.20;99.90;;;;;;5074344;28;20044;-23
2023/05/09 08:24:06;;;;;;;79.82;44.22;;;16.30;99.90;;;;;;5075053;28;20045;-23
2023/05/09 08:26:33;;;;;;;72.65;42.97;;;16.30;99.90;;;;;;5075556;28;20080;-24
2023/05/09 08:29:00;;;;;;;76.07;44.08;;;16.30;99.90;;;;;;5074029;28;20486;-23
2023/05/09 08:31:27;;;;;;;74.82;44.80;;;16.30;99.90;;;;;;5076189;28;20044;-23
2023/05/09 08:33:52;;;;;;;79.57;43.88;;;16.30;99.90;;;;;;5057732;28;20121;-23
2023/05/09 08:36:18;;;;;;;75.05;43.90;;;16.40;99.90;;;;;;5074104;28;20040;-23
2023/05/09 08:38:44;;;;;;;73.40;42.45;;;16.50;99.90;;;;;;5075229;28;20083;-23
2023/05/09 08:41:10;;;;;;;79.93;44.55;;;16.50;99.90;;;;;;5075225;28;20044;-23
2023/05/09 08:43:38;;;;;;;70.15;43.85;;;16.60;99.90;;;;;;5075164;28;20106;-23
2023/05/09 08:46:09;;;;;;;79.53;43.00;;;16.70;99.90;;;;;;5057727;28;20132;-23
2023/05/09 08:48:38;;;;;;;71.75;44.65;;;16.80;99.90;;;;;;5075049;28;20045;-23
2023/05/09 08:51:05;;;;;;;78.20;43.58;;;16.90;99.90;;;;;;5074919;28;20123;-24
2023/05/09 08:53:32;;;;;;;71.43;43.05;;;16.90;99.90;;;;;;5074952;28;20048;-23
2023/05/09 08:56:02;;;;;;;70.78;42.95;;;17.00;99.90;;;;;;5074854;28;20097;-24
2023/05/09 08:58:28;;;;;;;72.70;43.13;;;17.10;99.90;;;;;;5074872;28;20052;-23
2023/05/09 09:00:54;;;;;;;69.82;42.20;;;17.20;99.90;;;;;;5073545;28;20049;-24
2023/05/09 09:03:20;;;;;;;65.95;40.78;;;17.30;99.90;;;;;;5074721;28;20048;-23
2023/05/09 09:05:47;;;;;;;69.93;42.38;;;17.40;99.90;;;;;;5074474;28;20041;-23
2023/05/09 09:08:14;;;;;;;65.85;41.10;;;17.60;99.90;;;;;;5075407;28;20180;-24
2023/05/09 09:10:47;;;;;;;65.80;40.17;;;17.80;99.90;;;;;;5075115;28;20131;-24
2023/05/09 09:13:13;;;;;;;59.25;40.67;;;17.90;99.90;;;;;;5074550;28;20053;-24
2023/05/09 09:15:41;;;;;;;58.25;38.58;;;18.10;99.90;;;;;;5073531;28;20502;-24
2023/05/09 09:18:08;;;;;;;61.83;39.75;;;18.10;99.90;;;;;;5074705;28;20125;-24
2023/05/09 09:20:44;;;;;;;62.25;39.08;;;18.30;99.90;;;;;;5074598;28;20076;-24
2023/05/09 09:23:11;;;;;;;59.47;37.55;;;18.50;99.90;;;;;;5056737;28;20052;-24
2023/05/09 09:25:37;;;;;;;54.45;37.40;;;18.80;99.90;;;;;;5073161;28;20048;-24
2023/05/09 09:28:03;;;;;;;62.03;39.05;;;18.90;99.90;;;;;;5074668;28;20056;-24
2023/05/09 09:30:29;;;;;;;58.22;38.22;;;18.90;99.90;;;;;;5056482;28;20051;-24
2023/05/09 09:32:57;;;;;;;56.58;36.22;;;18.90;99.90;;;;;;5074193;28;20520;-24
2023/05/09 09:35:23;;;;;;;55.22;37.45;;;19.00;99.90;;;;;;5073361;28;20055;-24
2023/05/09 09:37:56;;;;;;;55.45;36.67;;;19.20;99.90;;;;;;5074627;28;20040;-24
2023/05/09 09:40:23;;;;;;;54.85;35.25;;;19.20;99.90;;;;;;5072990;28;20055;-24
2023/05/09 09:42:51;;;;;;;46.40;33.35;;;19.30;99.90;;;;;;5073998;28;20098;-24
2023/05/09 09:45:20;;;;;;;47.47;32.10;;;19.40;99.90;;;;;;5073924;28;20105;-24
2023/05/09 09:47:48;;;;;;;51.67;33.65;;;19.30;99.90;;;;;;5072455;28;20128;-24
2023/05/09 09:50:17;;;;;;;47.75;32.40;;;19.20;99.90;;;;;;5073882;28;20045;-24
2023/05/09 09:52:43;;;;;;;45.70;33.08;;;19.00;99.90;;;;;;5073015;28;20047;-24
2023/05/09 09:55:10;;;;;;;48.47;33.67;;;19.00;99.90;;;;;;5072635;28;20131;-24
2023/05/09 09:57:37;;;;;;;50.17;33.65;;;19.00;99.90;;;;;;5073557;28;20048;-24
2023/05/09 10:00:05;;;;;;;43.45;30.75;;;19.20;99.90;;;;;;5074682;28;20383;-24
2023/05/09 10:02:31;;;;;;;43.22;29.65;;;19.20;99.90;;;;;;5073696;28;20044;-24
2023/05/09 10:05:05;;;;;;;44.28;31.55;;;19.30;99.90;;;;;;5073819;28;20046;-24
2023/05/09 10:07:37;;;;;;;46.30;30.92;;;19.20;1.00;;;;;;5072848;28;20111;-24
2023/05/09 10:10:05;;;;;;;39.70;29.50;;;19.40;49.20;;;;;;5074078;28;20044;-24
2023/05/09 10:12:36;;;;;;;43.15;30.80;;;19.80;7.60;;;;;;5073641;28;20078;-24
2023/05/09 10:15:09;;;;;;;41.05;28.90;;;19.90;1.00;;;;;;5073510;28;20087;-24
2023/05/09 10:17:35;;;;;;;38.60;27.63;;;19.70;99.90;;;;;;5073542;28;20053;-24
2023/05/09 10:20:04;;;;;;;39.30;26.52;;;19.70;1.00;;;;;;5073515;28;20497;-24
2023/05/09 10:22:34;;;;;;;40.42;27.52;;;19.60;99.90;;;;;;5073454;28;20040;-24
2023/05/09 10:25:18;;;;;;;37.42;27.80;;;19.40;99.90;;;;;;5074428;28;20142;-24
2023/05/09 10:27:44;;;;;;;;;;;19.30;1.00;;;;;;5072863;28;20110;-24
2023/05/09 10:30:16;;;;;;;36.70;26.33;;;19.10;99.90;;;;;;5073556;28;20041;-24
2023/05/09 10:32:47;;;;;;;36.40;25.40;;;18.90;99.90;;;;;;5073574;28;20041;-24
2023/05/09 10:35:16;;;;;;;35.08;26.80;;;18.90;1.00;;;;;;5072334;28;20562;-24
2023/05/09 10:37:42;;;;;;;37.15;26.15;;;19.00;1.00;;;;;;5072183;28;20500;-25
2023/05/09 10:40:13;;;;;;;34.92;25.38;;;19.10;99.90;;;;;;5074164;28;20049;-24
2023/05/09 10:42:42;;;;;;;37.40;26.05;;;19.00;99.90;;;;;;5072766;28;20044;-25
2023/05/09 10:45:10;;;;;;;33.40;22.95;;;19.00;99.90;;;;;;5073051;28;20502;-24
2023/05/09 10:47:38;;;;;;;37.60;25.08;;;18.90;1.00;;;;;;5075835;28;20048;-25
2023/05/09 10:50:06;;;;;;;34.25;23.67;;;18.80;99.90;;;;;;5077228;28;20066;-24
2023/05/09 10:52:35;;;;;;;31.85;22.70;;;19.00;99.90;;;;;;5077250;28;20040;-24
2023/05/09 10:55:03;;;;;;;28.05;19.83;;;19.40;99.90;;;;;;5059265;28;20044;-24
2023/05/09 10:57:30;;;;;;;27.73;19.92;;;19.70;99.90;;;;;;5076563;28;20375;-24
2023/05/09 10:59:57;;;;;;;28.65;19.13;;;19.70;97.90;;;;;;5076189;28;20055;-24
2023/05/09 11:02:32;;;;;;;24.30;16.55;;;19.50;3.00;;;;;;5076625;28;20048;-25
2023/05/09 11:05:18;;;;;;;25.35;18.38;;;18.90;99.90;;;;;;5077085;28;20114;-25
2023/05/09 11:07:44;;;;;;;22.92;15.60;;;18.80;1.00;;;;;;5077039;28;20052;-25
2023/05/09 11:10:16;;;;;;;21.50;15.25;;;18.50;1.00;;;;;;5076926;28;20040;-25
2023/05/09 11:12:56;;;;;;;27.42;16.95;;;18.50;1.00;;;;;;5075911;28;20076;-24
2023/05/09 11:15:22;;;;;;;22.13;15.85;;;18.40;8.70;;;;;;5076798;28;20056;-25
2023/05/09 11:18:04;;;;;;;20.63;14.88;;;18.40;1.00;;;;;;5075802;28;20063;-25
2023/05/09 11:20:34;;;;;;;20.58;14.68;;;18.40;1.00;;;;;;5077352;28;20131;-24
2023/05/09 11:23:02;;;;;;;20.38;14.23;;;18.50;32.10;;;;;;5075397;28;20127;-25
2023/05/09 11:25:28;;;;;;;22.25;14.65;;;18.50;99.90;;;;;;5076576;28;20052;-25
2023/05/09 11:27:59;;;;;;;20.40;14.73;;;18.40;35.90;;;;;;5058718;28;20063;-24
2023/05/09 11:30:39;;;;;;;24.08;15.27;;;18.50;1.00;;;;;;5076558;28;20093;-25
2023/05/09 11:33:08;;;;;;;23.60;15.88;;;18.50;1.00;;;;;;5075619;28;20509;-25
2023/05/09 11:35:36;;;;;;;20.55;14.65;;;18.50;73.00;;;;;;5075470;28;20090;-25
2023/05/09 11:38:06;;;;;;;19.77;14.43;;;18.60;1.00;;;;;;5076398;28;20052;-25
2023/05/09 11:40:33;;;;;;;21.38;14.57;;;18.70;99.90;;;;;;5076629;28;20497;-25
2023/05/09 11:43:00;;;;;;;22.05;15.23;;;18.80;1.00;;;;;;5075794;28;20045;-25
2023/05/09 11:45:29;;;;;;;18.65;13.65;;;18.80;1.00;;;;;;5075377;28;20048;-25
2023/05/09 11:47:56;;;;;;;18.30;14.27;;;18.60;1.00;;;;;;5075273;28;20056;-25
2023/05/09 11:50:22;;;;;;;20.42;14.20;;;18.50;1.00;;;;;;5076905;28;20102;-25
2023/05/09 11:52:48;;;;;;;20.77;15.25;;;18.50;37.10;;;;;;5076683;28;20378;-25
2023/05/09 11:55:24;;;;;;;23.00;14.30;;;18.50;99.90;;;;;;5075200;28;20149;-25
2023/05/09 11:57:52;;;;;;;17.17;11.93;;;18.70;4.40;;;;;;5075282;28;20044;-25
2023/05/09 12:00:22;;;;;;;20.20;12.13;;;18.90;1.00;;;;;;5076052;28;20048;-25
2023/05/09 12:02:49;;;;;;;17.23;12.32;;;18.90;99.90;;;;;;5075605;28;20436;-25
2023/05/09 12:05:20;;;;;;;15.98;12.38;;;19.00;1.00;;;;;;5075742;28;20513;-25
2023/05/09 12:07:47;;;;;;;16.90;12.45;;;19.00;99.90;;;;;;5075648;28;20055;-25
2023/05/09 12:10:15;;;;;;;16.52;11.68;;;19.10;1.00;;;;;;5058011;28;20047;-25
2023/05/09 12:12:43;;;;;;;22.17;13.93;;;19.20;1.00;;;;;;5074862;28;20459;-25
2023/05/09 12:15:10;;;;;;;17.25;12.80;;;19.20;1.00;;;;;;5075855;28;20045;-25
2023/05/09 12:17:36;;;;;;;17.58;12.27;;;19.30;1.00;;;;;;5075801;28;20052;-25
2023/05/09 12:20:04;;;;;;;16.38;12.73;;;19.50;1.00;;;;;;5075767;28;20051;-25
2023/05/09 12:22:31;;;;;;;15.48;12.23;;;19.60;1.00;;;;;;5074401;28;20043;-26
2023/05/09 12:25:01;;;;;;;15.07;12.65;;;19.70;1.00;;;;;;5075661;28;20098;-25